Time;durP1;ratioP1;P1;durP2;ratioP2;P2;SDS_P1;SDS_P2;PMS_P1;PMS_P2;Temp;Humidity;BMP_temperature;BMP_pressure;BME280_temperature;BME280_humidity;BME280_pressure;Samples;Min_cycle;Max_cycle;Signal;HPM_P1;HPM_P2
2024/01/05 00:02:09;;;;;;;1.17;0.90;;;7.90;99.90;;;;;;5010504;28;20056;-73
2024/01/05 00:04:40;;;;;;;1.70;1.00;;;7.70;99.90;;;;;;5023643;28;20064;-74
2024/01/05 00:07:09;;;;;;;1.45;1.00;;;7.70;99.90;;;;;;5038453;28;20135;-73
2024/01/05 00:09:36;;;;;;;0.85;0.75;;;7.60;99.90;;;;;;5006914;28;20583;-74
2024/01/05 00:12:03;;;;;;;1.98;1.15;;;7.60;99.90;;;;;;5039750;28;20048;-73
2024/01/05 00:14:35;;;;;;;1.25;0.95;;;7.60;99.90;;;;;;5028529;28;20061;-74
2024/01/05 00:17:02;;;;;;;1.05;0.95;;;7.50;99.90;;;;;;5019934;28;20053;-74
2024/01/05 00:19:29;;;;;;;1.40;1.00;;;7.40;99.90;;;;;;5019486;28;20760;-73
2024/01/05 00:21:56;;;;;;;2.05;1.20;;;7.30;99.90;;;;;;4989621;28;20654;-73
2024/01/05 00:24:24;;;;;;;1.23;0.73;;;7.20;99.90;;;;;;4986429;28;20091;-73
2024/01/05 00:26:52;;;;;;;2.58;0.90;;;7.20;99.90;;;;;;5019345;28;20064;-74
2024/01/05 00:29:19;;;;;;;2.38;1.13;;;7.10;99.90;;;;;;4986609;28;20475;-73
2024/01/05 00:31:46;;;;;;;2.05;1.05;;;7.10;99.90;;;;;;5014319;28;20064;-73
2024/01/05 00:34:12;;;;;;;1.60;0.90;;;7.00;99.90;;;;;;5026613;28;20057;-73
2024/01/05 00:36:40;;;;;;;1.75;0.95;;;7.00;99.90;;;;;;5019559;28;20049;-73
2024/01/05 00:39:08;;;;;;;1.20;1.08;;;7.00;99.90;;;;;;5018770;28;20069;-73
2024/01/05 00:41:35;;;;;;;1.52;1.05;;;7.00;99.90;;;;;;5034890;28;20053;-73
2024/01/05 00:44:01;;;;;;;1.35;0.82;;;6.90;99.90;;;;;;5022046;28;20048;-74
2024/01/05 00:46:30;;;;;;;1.83;0.95;;;6.90;99.90;;;;;;5022730;28;20129;-73
2024/01/05 00:48:57;;;;;;;1.65;0.90;;;6.90;99.90;;;;;;5022457;28;20564;-73
2024/01/05 00:51:25;;;;;;;1.23;0.70;;;6.80;99.90;;;;;;5022289;28;20136;-73
2024/01/05 00:53:52;;;;;;;2.33;0.85;;;6.80;99.90;;;;;;5039115;28;20068;-73
2024/01/05 00:56:19;;;;;;;1.52;0.70;;;6.80;99.90;;;;;;5020337;28;20135;-73
2024/01/05 00:58:46;;;;;;;0.90;0.65;;;6.70;99.90;;;;;;5002671;28;20136;-73
2024/01/05 01:01:14;;;;;;;2.03;0.63;;;6.70;27.60;;;;;;5037329;28;20064;-73
2024/01/05 01:03:41;;;;;;;1.23;0.70;;;6.60;41.80;;;;;;5021801;28;20049;-73
2024/01/05 01:06:08;;;;;;;1.75;0.70;;;6.60;31.60;;;;;;5040166;28;20598;-73
2024/01/05 01:08:35;;;;;;;0.85;0.57;;;6.50;41.60;;;;;;5004247;28;20049;-73
2024/01/05 01:11:03;;;;;;;1.38;0.65;;;6.50;99.90;;;;;;5019128;28;20100;-73
2024/01/05 01:13:30;;;;;;;0.77;0.45;;;6.40;1.00;;;;;;5022542;28;20103;-73
2024/01/05 01:15:57;;;;;;;1.02;0.30;;;6.30;1.00;;;;;;4999661;28;20176;-73
2024/01/05 01:18:24;;;;;;;1.27;0.50;;;6.20;1.00;;;;;;5002091;28;20057;-73
2024/01/05 01:20:51;;;;;;;0.73;0.30;;;6.20;1.00;;;;;;5002492;28;20410;-73
2024/01/05 01:23:18;;;;;;;1.67;0.55;;;6.10;1.00;;;;;;5017606;28;20629;-73
2024/01/05 01:25:45;;;;;;;1.33;0.65;;;6.10;1.00;;;;;;5021975;28;20041;-72
2024/01/05 01:28:14;;;;;;;0.40;0.40;;;6.00;1.00;;;;;;5038733;28;20057;-74
2024/01/05 01:30:41;;;;;;;0.70;0.40;;;6.00;5.60;;;;;;5028534;28;20049;-73
2024/01/05 01:33:09;;;;;;;1.70;0.70;;;5.90;17.20;;;;;;5022938;28;20069;-73
2024/01/05 01:35:36;;;;;;;1.42;0.40;;;6.00;99.90;;;;;;5025394;28;20041;-73
2024/01/05 01:38:03;;;;;;;1.00;0.40;;;5.90;1.00;;;;;;5041569;28;20045;-73
2024/01/05 01:40:30;;;;;;;0.70;0.57;;;5.90;1.00;;;;;;5016406;28;20053;-73
2024/01/05 01:42:57;;;;;;;0.50;0.40;;;5.90;13.10;;;;;;5007693;28;20061;-73
2024/01/05 01:45:25;;;;;;;2.33;0.60;;;5.90;99.90;;;;;;5040576;28;20049;-73
2024/01/05 01:47:52;;;;;;;0.60;0.50;;;5.80;99.90;;;;;;5042023;28;20102;-75
2024/01/05 01:50:19;;;;;;;0.80;0.40;;;5.90;99.90;;;;;;5018316;28;20071;-73
2024/01/05 01:52:46;;;;;;;0.98;0.50;;;5.80;99.90;;;;;;5022320;28;20107;-73
2024/01/05 01:55:14;;;;;;;0.63;0.40;;;5.80;99.90;;;;;;5007822;28;20562;-73
2024/01/05 01:57:41;;;;;;;1.90;0.50;;;5.80;99.90;;;;;;5025583;28;20126;-73
2024/01/05 02:00:09;;;;;;;0.52;0.40;;;5.70;33.20;;;;;;5042351;28;20460;-74
2024/01/05 02:02:36;;;;;;;0.50;0.50;;;5.70;99.90;;;;;;5007919;28;20045;-73
2024/01/05 02:05:05;;;;;;;0.70;0.50;;;5.70;99.90;;;;;;5008736;28;20045;-73
2024/01/05 02:07:32;;;;;;;0.63;0.40;;;5.70;99.90;;;;;;5024257;28;20071;-73
2024/01/05 02:09:59;;;;;;;1.17;0.77;;;5.70;99.90;;;;;;5015357;28;20064;-73
2024/01/05 02:12:25;;;;;;;2.10;0.70;;;5.70;99.90;;;;;;5022115;28;20405;-73
2024/01/05 02:14:52;;;;;;;0.70;0.40;;;5.70;99.90;;;;;;5004593;28;20049;-73
2024/01/05 02:17:32;;;;;;;1.10;0.40;;;5.70;99.90;;;;;;5005877;28;20061;-73
2024/01/05 02:20:01;;;;;;;1.42;0.60;;;5.70;99.90;;;;;;5005107;28;20816;-73
2024/01/05 02:22:31;;;;;;;0.68;0.55;;;5.70;99.90;;;;;;5036338;28;20057;-74
2024/01/05 02:24:58;;;;;;;1.58;0.70;;;5.70;1.00;;;;;;5024481;28;20099;-73
2024/01/05 02:27:26;;;;;;;1.02;0.50;;;5.70;1.00;;;;;;5024717;28;20045;-73
2024/01/05 02:29:53;;;;;;;0.30;0.30;;;5.70;1.00;;;;;;5008429;28;20151;-73
2024/01/05 02:32:20;;;;;;;1.13;0.40;;;5.60;1.00;;;;;;5015047;28;20140;-73
2024/01/05 02:34:47;;;;;;;0.55;0.50;;;5.70;99.90;;;;;;5044311;28;20341;-73
2024/01/05 02:37:14;;;;;;;1.05;0.38;;;5.60;99.90;;;;;;5026586;28;20053;-74
2024/01/05 02:39:41;;;;;;;1.38;0.43;;;5.60;99.90;;;;;;5045788;28;20506;-73
2024/01/05 02:42:08;;;;;;;0.65;0.40;;;5.60;1.00;;;;;;5036097;28;20622;-73
2024/01/05 02:44:35;;;;;;;0.60;0.40;;;5.60;1.00;;;;;;5035672;28;20132;-74
2024/01/05 02:47:02;;;;;;;1.00;0.60;;;5.60;99.90;;;;;;5026122;28;20451;-73
2024/01/05 02:49:28;;;;;;;2.53;0.60;;;5.60;1.00;;;;;;5008754;28;20053;-74
2024/01/05 02:51:55;;;;;;;2.53;0.70;;;5.70;99.90;;;;;;5040527;28;20106;-73
2024/01/05 02:54:22;;;;;;;2.13;0.50;;;5.60;99.90;;;;;;5023072;28;20045;-73
2024/01/05 02:56:50;;;;;;;1.48;0.43;;;5.60;99.90;;;;;;5007696;28;20049;-74
2024/01/05 02:59:17;;;;;;;1.83;0.50;;;5.60;99.90;;;;;;5024223;28;20128;-73
2024/01/05 03:01:43;;;;;;;0.60;0.30;;;5.60;99.90;;;;;;4992224;28;20061;-74
2024/01/05 03:04:11;;;;;;;0.60;0.32;;;5.60;99.90;;;;;;5023843;28;20164;-74
2024/01/05 03:06:38;;;;;;;0.77;0.40;;;5.50;99.90;;;;;;5010628;28;20402;-73
2024/01/05 03:09:07;;;;;;;1.02;0.50;;;5.50;14.70;;;;;;5011193;28;20088;-73
2024/01/05 03:11:37;;;;;;;1.25;0.40;;;5.50;99.90;;;;;;5028556;28;20624;-74
2024/01/05 03:14:04;;;;;;;0.75;0.40;;;5.50;99.90;;;;;;5043418;28;20141;-73
2024/01/05 03:16:31;;;;;;;1.60;0.70;;;5.50;99.90;;;;;;5022019;28;20108;-72
2024/01/05 03:18:58;;;;;;;1.60;0.70;;;5.40;99.90;;;;;;5026807;28;20053;-73
2024/01/05 03:21:26;;;;;;;1.27;0.50;;;5.40;1.00;;;;;;5023569;28;20053;-73
2024/01/05 03:23:53;;;;;;;0.82;0.50;;;5.40;99.90;;;;;;5028773;28;20114;-73
2024/01/05 03:26:19;;;;;;;0.55;0.50;;;5.40;99.90;;;;;;5017885;28;20378;-73
2024/01/05 03:28:46;;;;;;;1.08;0.50;;;5.40;1.00;;;;;;5020639;28;20457;-73
2024/01/05 03:31:13;;;;;;;1.30;0.45;;;5.40;8.00;;;;;;5044699;28;20133;-73
2024/01/05 03:33:41;;;;;;;1.02;0.60;;;5.40;99.90;;;;;;5043277;28;20055;-73
2024/01/05 03:36:08;;;;;;;1.13;0.60;;;5.30;99.90;;;;;;5026501;28;20056;-73
2024/01/05 03:38:35;;;;;;;2.00;0.80;;;5.30;91.10;;;;;;5040395;28;20053;-73
2024/01/05 03:41:02;;;;;;;1.73;0.75;;;5.30;1.00;;;;;;5017342;28;20061;-73
2024/01/05 03:43:29;;;;;;;2.17;0.88;;;5.30;63.40;;;;;;5007201;28;20490;-73
2024/01/05 03:45:56;;;;;;;0.90;0.63;;;5.30;99.90;;;;;;5036794;28;20079;-73
2024/01/05 03:48:23;;;;;;;0.90;0.65;;;5.20;99.90;;;;;;5041983;28;20045;-73
2024/01/05 03:50:50;;;;;;;0.60;0.40;;;5.20;1.00;;;;;;5038118;28;20068;-73
2024/01/05 03:53:17;;;;;;;0.73;0.63;;;5.20;99.90;;;;;;4990561;28;20049;-73
2024/01/05 03:55:44;;;;;;;0.95;0.63;;;5.20;13.40;;;;;;5007124;28;20053;-73
2024/01/05 03:58:11;;;;;;;0.63;0.57;;;5.20;99.90;;;;;;5007204;28;20115;-73
2024/01/05 04:00:38;;;;;;;0.90;0.70;;;5.30;99.90;;;;;;5025071;28;20060;-73
2024/01/05 04:03:05;;;;;;;2.05;0.70;;;5.30;99.90;;;;;;5023127;28;20050;-73
2024/01/05 04:05:32;;;;;;;1.38;0.60;;;5.30;1.00;;;;;;5024305;28;20066;-74
2024/01/05 04:07:59;;;;;;;0.95;0.70;;;5.20;1.00;;;;;;5018521;28;20485;-73
2024/01/05 04:10:26;;;;;;;1.58;0.80;;;5.30;99.90;;;;;;5036600;28;20073;-73
2024/01/05 04:12:52;;;;;;;1.20;1.10;;;5.30;99.90;;;;;;5000752;28;20044;-73
2024/01/05 04:15:20;;;;;;;1.63;0.93;;;5.30;99.90;;;;;;5025866;28;20084;-73
2024/01/05 04:17:47;;;;;;;1.98;0.88;;;5.30;1.00;;;;;;4990928;28;20053;-73
2024/01/05 04:20:14;;;;;;;1.83;1.00;;;5.30;99.90;;;;;;5024591;28;20060;-73
2024/01/05 04:22:41;;;;;;;1.40;0.75;;;5.30;99.90;;;;;;5009675;28;20384;-73
2024/01/05 04:25:08;;;;;;;1.55;0.73;;;5.30;99.90;;;;;;5026549;28;20057;-73
2024/01/05 04:27:35;;;;;;;1.25;1.10;;;5.40;99.90;;;;;;5026442;28;20102;-73
2024/01/05 04:30:03;;;;;;;2.97;1.30;;;5.30;99.90;;;;;;5042613;28;20059;-74
2024/01/05 04:32:31;;;;;;;2.05;1.15;;;5.40;1.00;;;;;;5043644;28;20076;-73
2024/01/05 04:34:58;;;;;;;2.22;1.17;;;5.40;1.00;;;;;;5026756;28;20084;-73
2024/01/05 04:37:25;;;;;;;1.45;1.00;;;5.40;99.90;;;;;;5022108;28;20132;-73
2024/01/05 04:39:51;;;;;;;1.50;1.05;;;5.40;99.90;;;;;;5023392;28;20532;-73
2024/01/05 04:42:18;;;;;;;1.58;1.13;;;5.40;99.90;;;;;;5022300;28;20363;-73
2024/01/05 04:44:45;;;;;;;2.67;1.13;;;5.40;99.90;;;;;;5026303;28;20048;-74
2024/01/05 04:47:12;;;;;;;3.03;1.45;;;5.50;99.90;;;;;;5017759;28;20442;-73
2024/01/05 04:49:39;;;;;;;2.53;1.42;;;5.40;99.90;;;;;;5013888;28;20411;-73
2024/01/05 04:52:06;;;;;;;1.95;1.50;;;5.50;99.90;;;;;;5005978;28;20049;-73
2024/01/05 04:54:32;;;;;;;2.75;1.60;;;5.50;99.90;;;;;;5025000;28;20453;-73
2024/01/05 04:57:01;;;;;;;2.58;1.33;;;5.50;99.90;;;;;;5026027;28;20088;-74
2024/01/05 04:59:28;;;;;;;3.17;1.85;;;5.50;99.90;;;;;;5027054;28;20477;-73
2024/01/05 05:01:55;;;;;;;3.50;2.03;;;5.60;99.90;;;;;;5008225;28;20583;-73
2024/01/05 05:04:22;;;;;;;4.35;2.70;;;5.60;99.90;;;;;;5003132;28;20060;-73
2024/01/05 05:06:49;;;;;;;4.15;2.83;;;5.60;99.90;;;;;;5028051;28;20055;-73
2024/01/05 05:09:16;;;;;;;4.70;3.10;;;5.60;99.90;;;;;;5046714;28;20049;-73
2024/01/05 05:11:43;;;;;;;4.22;2.63;;;5.70;99.90;;;;;;5046807;28;20490;-73
2024/01/05 05:14:10;;;;;;;3.40;2.75;;;5.70;99.90;;;;;;5034510;28;20080;-73
2024/01/05 05:16:37;;;;;;;5.53;2.85;;;5.70;99.90;;;;;;4996498;28;20376;-73
2024/01/05 05:19:04;;;;;;;6.68;3.88;;;5.70;99.90;;;;;;5006575;28;20140;-73
2024/01/05 05:21:31;;;;;;;6.05;4.10;;;5.70;99.90;;;;;;5034154;28;20141;-73
2024/01/05 05:23:58;;;;;;;6.55;3.45;;;5.70;99.90;;;;;;5033362;28;20132;-73
2024/01/05 05:26:25;;;;;;;6.55;4.50;;;5.80;99.90;;;;;;4994107;28;20410;-73
2024/01/05 05:28:52;;;;;;;4.88;3.30;;;5.80;99.90;;;;;;4993876;28;20932;-73
2024/01/05 05:31:18;;;;;;;6.63;4.60;;;5.80;99.90;;;;;;5010560;28;20054;-73
2024/01/05 05:33:45;;;;;;;8.23;4.20;;;5.80;99.90;;;;;;5026022;28;20049;-73
2024/01/05 05:36:12;;;;;;;6.05;3.72;;;5.80;99.90;;;;;;5026450;28;20146;-73
2024/01/05 05:38:39;;;;;;;6.28;4.40;;;5.80;99.90;;;;;;5009436;28;20087;-73
2024/01/05 05:41:06;;;;;;;5.85;3.85;;;5.80;96.00;;;;;;4996600;28;20112;-73
2024/01/05 05:43:33;;;;;;;7.40;4.15;;;5.80;78.50;;;;;;5045033;28;20053;-73
2024/01/05 05:46:00;;;;;;;9.32;5.03;;;5.80;99.90;;;;;;5038434;28;20112;-73
2024/01/05 05:48:27;;;;;;;7.35;4.53;;;5.70;6.00;;;;;;5043023;28;20057;-73
2024/01/05 05:50:53;;;;;;;7.40;4.22;;;5.70;26.80;;;;;;5045905;28;20064;-73
2024/01/05 05:53:20;;;;;;;5.75;3.58;;;5.80;10.60;;;;;;5037162;28;20422;-73
2024/01/05 05:55:48;;;;;;;8.18;5.40;;;5.80;19.10;;;;;;5029449;28;20095;-73
2024/01/05 05:58:15;;;;;;;7.85;4.18;;;5.80;1.00;;;;;;5044975;28;20079;-73
2024/01/05 06:00:42;;;;;;;11.32;4.50;;;5.80;1.00;;;;;;5020666;28;20073;-73
2024/01/05 06:03:09;;;;;;;5.60;4.43;;;5.80;1.00;;;;;;5021163;28;20049;-73
2024/01/05 06:05:40;;;;;;;4.75;3.35;;;5.80;1.00;;;;;;5041439;28;20049;-73
2024/01/05 06:08:07;;;;;;;7.68;4.53;;;5.80;1.00;;;;;;5039886;28;20126;-73
2024/01/05 06:10:34;;;;;;;6.18;4.30;;;5.80;1.00;;;;;;5006755;28;20103;-73
2024/01/05 06:13:02;;;;;;;9.35;5.75;;;5.80;99.90;;;;;;5024610;28;20049;-73
2024/01/05 06:15:29;;;;;;;11.40;5.47;;;5.80;99.90;;;;;;5008053;28;20049;-73
2024/01/05 06:17:56;;;;;;;6.82;4.65;;;5.80;99.90;;;;;;5037618;28;20523;-73
2024/01/05 06:20:24;;;;;;;6.88;4.22;;;5.80;99.90;;;;;;5008054;28;20106;-73
2024/01/05 06:22:53;;;;;;;6.93;4.95;;;5.80;99.90;;;;;;4999245;28;20049;-73
2024/01/05 06:25:20;;;;;;;7.45;4.80;;;5.80;99.90;;;;;;5035801;28;20076;-74
2024/01/05 06:27:47;;;;;;;8.93;4.50;;;5.80;99.90;;;;;;5018610;28;20107;-73
2024/01/05 06:30:14;;;;;;;5.38;3.30;;;5.80;99.90;;;;;;5019998;28;20052;-73
2024/01/05 06:32:41;;;;;;;6.18;4.15;;;5.80;99.90;;;;;;5028716;28;20049;-73
2024/01/05 06:35:09;;;;;;;4.65;3.38;;;5.80;99.90;;;;;;5004915;28;20063;-73
2024/01/05 06:37:35;;;;;;;5.25;3.30;;;5.90;99.90;;;;;;4987621;28;20107;-72
2024/01/05 06:40:03;;;;;;;7.85;4.18;;;5.80;98.50;;;;;;5026323;28;20091;-73
2024/01/05 06:42:30;;;;;;;4.65;2.97;;;5.90;99.90;;;;;;5011831;28;20406;-73
2024/01/05 06:44:57;;;;;;;4.82;3.40;;;5.90;96.60;;;;;;5023817;28;20056;-73
2024/01/05 06:47:25;;;;;;;3.72;2.70;;;5.90;1.00;;;;;;5028883;28;20045;-73
2024/01/05 06:49:52;;;;;;;5.07;2.90;;;5.90;1.00;;;;;;5020481;28;20461;-73
2024/01/05 06:52:19;;;;;;;6.45;2.80;;;5.90;99.90;;;;;;5033760;28;20056;-73
2024/01/05 06:54:46;;;;;;;6.22;3.72;;;5.90;99.90;;;;;;5024900;28;20084;-72
2024/01/05 06:57:13;;;;;;;5.65;3.75;;;5.90;99.90;;;;;;4989102;28;20163;-72
2024/01/05 06:59:39;;;;;;;4.60;3.13;;;5.90;99.90;;;;;;5006583;28;20067;-73
2024/01/05 07:02:06;;;;;;;4.28;3.45;;;5.90;1.00;;;;;;4999214;28;20518;-73
2024/01/05 07:04:33;;;;;;;6.07;3.63;;;5.90;1.00;;;;;;5040917;28;20049;-73
2024/01/05 07:07:00;;;;;;;6.35;3.95;;;5.90;24.50;;;;;;5029614;28;20566;-73
2024/01/05 07:09:27;;;;;;;5.13;3.85;;;5.90;1.00;;;;;;5030312;28;20531;-73
2024/01/05 07:11:54;;;;;;;5.75;3.17;;;5.90;1.00;;;;;;5028377;28;20496;-73
2024/01/05 07:14:21;;;;;;;5.78;3.42;;;5.90;99.90;;;;;;5029036;28;20445;-73
2024/01/05 07:16:48;;;;;;;6.30;3.30;;;5.90;99.90;;;;;;5027687;28;20049;-73
2024/01/05 07:19:15;;;;;;;4.82;3.33;;;5.90;99.90;;;;;;5014841;28;20115;-73
2024/01/05 07:21:45;;;;;;;5.70;4.13;;;5.90;91.30;;;;;;5028191;28;20134;-73
2024/01/05 07:24:16;;;;;;;5.60;3.78;;;5.90;1.00;;;;;;5015665;28;20056;-74
2024/01/05 07:26:43;;;;;;;4.88;3.38;;;6.00;99.90;;;;;;5014831;28;20052;-73
2024/01/05 07:29:10;;;;;;;5.95;3.40;;;6.00;99.90;;;;;;5012362;28;20046;-73
2024/01/05 07:31:37;;;;;;;5.63;4.15;;;6.00;1.00;;;;;;5012412;28;20049;-73
2024/01/05 07:34:05;;;;;;;6.38;3.65;;;6.00;1.00;;;;;;5014181;28;20053;-73
2024/01/05 07:36:32;;;;;;;5.43;3.60;;;6.00;99.90;;;;;;5028885;28;20099;-73
2024/01/05 07:38:59;;;;;;;3.65;3.10;;;6.00;99.90;;;;;;5014283;28;20139;-73
2024/01/05 07:41:27;;;;;;;6.07;3.67;;;6.00;94.80;;;;;;5011492;28;20045;-73
2024/01/05 07:43:54;;;;;;;5.38;4.28;;;6.00;99.90;;;;;;4998771;28;20120;-74
2024/01/05 07:46:25;;;;;;;5.47;3.33;;;6.00;99.90;;;;;;5010258;28;20133;-73
2024/01/05 07:48:52;;;;;;;5.38;3.70;;;6.00;99.90;;;;;;5033445;28;20419;-73
2024/01/05 07:51:19;;;;;;;4.45;3.40;;;6.00;1.00;;;;;;5031688;28;21001;-72
2024/01/05 07:53:49;;;;;;;5.47;3.47;;;6.10;99.90;;;;;;5010664;28;20042;-73
2024/01/05 07:56:17;;;;;;;5.45;3.50;;;6.10;99.90;;;;;;5015438;28;20053;-73
2024/01/05 07:58:44;;;;;;;6.93;3.70;;;6.10;99.90;;;;;;5033202;28;20049;-72
2024/01/05 08:01:18;;;;;;;6.88;4.25;;;6.10;13.20;;;;;;5014869;28;20124;-73
2024/01/05 08:03:45;;;;;;;4.85;3.50;;;6.00;1.00;;;;;;5009705;28;20175;-73
2024/01/05 08:06:18;;;;;;;5.07;2.97;;;6.00;1.00;;;;;;5011553;28;20044;-72
2024/01/05 08:08:46;;;;;;;;;;;6.00;32.60;;;;;;5009768;28;20149;-72
2024/01/05 08:11:13;;;;;;;5.18;3.47;;;6.10;1.00;;;;;;5031251;28;20354;-73
2024/01/05 08:13:42;;;;;;;4.13;2.95;;;6.00;1.00;;;;;;5023825;28;20080;-73
2024/01/05 08:16:09;;;;;;;6.65;3.53;;;6.00;1.00;;;;;;5029023;28;20063;-73
2024/01/05 08:18:36;;;;;;;5.28;3.40;;;6.00;99.90;;;;;;5012135;28;20067;-72
2024/01/05 08:21:03;;;;;;;4.00;3.08;;;6.00;99.90;;;;;;4993558;28;20045;-72
2024/01/05 08:23:33;;;;;;;4.82;2.78;;;6.00;1.00;;;;;;5029336;28;20061;-72
2024/01/05 08:26:00;;;;;;;4.00;2.83;;;6.00;99.90;;;;;;5012726;28;20045;-72
2024/01/05 08:28:26;;;;;;;4.25;2.83;;;6.00;99.90;;;;;;5031829;28;20462;-72
2024/01/05 08:30:54;;;;;;;5.18;3.10;;;6.00;99.90;;;;;;5012086;28;20049;-72
2024/01/05 08:33:23;;;;;;;4.22;2.63;;;6.00;99.90;;;;;;5026551;28;20049;-72
2024/01/05 08:35:51;;;;;;;4.43;2.63;;;6.00;99.90;;;;;;5011804;28;20613;-72
2024/01/05 08:38:17;;;;;;;6.32;3.85;;;6.00;99.90;;;;;;5031526;28;20057;-73
2024/01/05 08:40:45;;;;;;;5.25;3.28;;;6.00;99.90;;;;;;5009353;28;20053;-73
2024/01/05 08:43:12;;;;;;;5.35;3.30;;;6.00;99.90;;;;;;5021077;28;20049;-73
2024/01/05 08:45:39;;;;;;;7.20;3.72;;;6.00;99.90;;;;;;5027631;28;20076;-73
2024/01/05 08:48:06;;;;;;;4.75;2.63;;;6.00;99.90;;;;;;5028763;28;20248;-73
2024/01/05 08:50:34;;;;;;;4.55;2.67;;;6.00;99.90;;;;;;5031031;28;20056;-74
2024/01/05 08:53:02;;;;;;;4.22;3.03;;;6.00;99.90;;;;;;5025077;28;20053;-73
2024/01/05 08:55:29;;;;;;;5.10;2.65;;;6.00;99.90;;;;;;5029006;28;20053;-72
2024/01/05 08:57:56;;;;;;;3.38;1.90;;;6.00;18.90;;;;;;5029891;28;20053;-74
2024/01/05 09:00:23;;;;;;;3.33;2.40;;;6.10;51.30;;;;;;5030650;28;20056;-74
2024/01/05 09:02:50;;;;;;;3.67;2.47;;;6.10;1.00;;;;;;5009120;28;20099;-73
2024/01/05 09:05:17;;;;;;;3.50;2.55;;;6.10;97.00;;;;;;5029306;28;20556;-73
2024/01/05 09:07:44;;;;;;;4.82;2.85;;;6.10;1.00;;;;;;5006506;28;20139;-73
2024/01/05 09:10:11;;;;;;;4.45;2.80;;;6.10;1.00;;;;;;5035319;28;20808;-73
2024/01/05 09:12:38;;;;;;;4.85;2.22;;;6.10;99.90;;;;;;5019114;28;20131;-73
2024/01/05 09:15:06;;;;;;;2.33;1.67;;;6.10;1.00;;;;;;5004460;28;20111;-73
2024/01/05 09:17:33;;;;;;;5.57;2.13;;;6.10;1.00;;;;;;5028494;28;20053;-73
2024/01/05 09:20:03;;;;;;;4.55;2.22;;;6.20;99.90;;;;;;5033628;28;20060;-74
2024/01/05 09:22:30;;;;;;;5.50;1.77;;;6.20;99.90;;;;;;5004798;28;20058;-73
2024/01/05 09:24:57;;;;;;;3.50;2.13;;;6.20;99.90;;;;;;5017805;28;20136;-73
2024/01/05 09:27:24;;;;;;;6.80;2.47;;;6.20;66.70;;;;;;5036805;28;20056;-73
2024/01/05 09:29:51;;;;;;;6.75;2.42;;;6.20;1.00;;;;;;5021352;28;20064;-73
2024/01/05 09:32:18;;;;;;;2.75;2.15;;;6.20;1.00;;;;;;5018668;28;20060;-73
2024/01/05 09:34:45;;;;;;;3.42;1.80;;;6.20;1.00;;;;;;5021747;28;20057;-74
2024/01/05 09:37:12;;;;;;;2.78;1.77;;;6.20;1.00;;;;;;5033461;28;20045;-74
2024/01/05 09:39:39;;;;;;;2.63;1.70;;;6.30;99.90;;;;;;5002430;28;20061;-74
2024/01/05 09:42:06;;;;;;;2.67;1.80;;;6.30;99.90;;;;;;5020260;28;20037;-73
2024/01/05 09:44:33;;;;;;;2.80;1.80;;;6.30;99.90;;;;;;5018147;28;20061;-74
2024/01/05 09:47:00;;;;;;;3.78;2.03;;;6.30;99.90;;;;;;5019316;28;20045;-74
2024/01/05 09:49:27;;;;;;;2.70;1.35;;;6.40;99.90;;;;;;5003045;28;20120;-74
2024/01/05 09:51:54;;;;;;;4.05;1.70;;;6.40;99.90;;;;;;5030875;28;20105;-73
2024/01/05 09:54:21;;;;;;;7.40;2.25;;;6.40;99.90;;;;;;5007105;28;20462;-73
2024/01/05 09:56:48;;;;;;;4.15;1.75;;;6.50;99.90;;;;;;5009986;28;20598;-73
2024/01/05 09:59:17;;;;;;;4.43;2.17;;;6.50;99.90;;;;;;5005267;28;20060;-73
2024/01/05 10:01:46;;;;;;;4.72;1.83;;;6.50;58.00;;;;;;5029369;28;20468;-73
2024/01/05 10:04:14;;;;;;;3.35;2.00;;;6.50;91.50;;;;;;5021327;28;20152;-73
2024/01/05 10:06:41;;;;;;;2.25;1.20;;;6.60;99.90;;;;;;5037445;28;20052;-74
2024/01/05 10:09:09;;;;;;;2.72;1.88;;;6.60;12.90;;;;;;5024227;28;20151;-74
2024/01/05 10:11:41;;;;;;;1.83;1.38;;;6.60;1.00;;;;;;4992022;28;20377;-73
2024/01/05 10:14:13;;;;;;;2.25;1.55;;;6.70;1.00;;;;;;5005190;28;20049;-73
2024/01/05 10:16:40;;;;;;;2.80;1.33;;;6.70;1.00;;;;;;5022103;28;20053;-74
2024/01/05 10:19:17;;;;;;;2.85;1.90;;;6.70;1.00;;;;;;5022771;28;20107;-73
2024/01/05 10:21:46;;;;;;;4.40;1.88;;;6.70;99.90;;;;;;5017798;28;20410;-75
2024/01/05 10:24:21;;;;;;;2.70;1.48;;;6.70;1.00;;;;;;5000027;28;20050;-73
2024/01/05 10:27:12;;;;;;;2.58;1.40;;;6.80;99.90;;;;;;5015039;28;20134;-75
2024/01/05 10:29:44;;;;;;;3.53;1.33;;;6.80;99.90;;;;;;5011247;28;20049;-73
2024/01/05 10:32:18;;;;;;;3.38;2.03;;;6.90;99.90;;;;;;4993759;28;20057;-73
2024/01/05 10:34:46;;;;;;;3.20;2.03;;;6.80;99.90;;;;;;5018661;28;20055;-73
2024/01/05 10:37:14;;;;;;;2.90;1.52;;;6.90;99.90;;;;;;5014709;28;20057;-73
2024/01/05 10:39:56;;;;;;;4.13;2.00;;;6.90;99.90;;;;;;5009267;28;20123;-73
2024/01/05 10:42:30;;;;;;;2.80;1.50;;;7.00;99.90;;;;;;4996786;28;20134;-74
2024/01/05 10:44:57;;;;;;;4.60;1.65;;;7.00;99.90;;;;;;5020566;28;20133;-74
2024/01/05 10:47:26;;;;;;;3.08;1.80;;;7.00;99.90;;;;;;5023065;28;20049;-73
2024/01/05 10:49:55;;;;;;;3.30;1.45;;;7.00;99.90;;;;;;5037719;28;20090;-75
2024/01/05 10:52:30;;;;;;;3.40;2.25;;;7.00;99.90;;;;;;5027401;28;20495;-77
2024/01/05 10:54:57;;;;;;;3.50;2.10;;;7.10;99.90;;;;;;5024472;28;20053;-77
2024/01/05 10:57:25;;;;;;;2.22;1.58;;;7.00;99.90;;;;;;5041084;28;20060;-77
2024/01/05 10:59:55;;;;;;;2.30;1.55;;;7.10;99.90;;;;;;5019558;28;20056;-76
2024/01/05 11:02:34;;;;;;;3.05;1.88;;;7.20;99.90;;;;;;5006251;28;20076;-77
2024/01/05 11:05:12;;;;;;;2.05;1.40;;;7.20;99.90;;;;;;5022518;28;20045;-78
2024/01/05 11:07:40;;;;;;;2.20;1.45;;;7.30;99.90;;;;;;5034693;28;20053;-77
2024/01/05 11:10:35;;;;;;;3.22;1.83;;;7.30;99.90;;;;;;5032611;28;20041;-79
2024/01/05 11:13:35;;;;;;;2.97;1.60;;;7.40;99.90;;;;;;5000357;28;20439;-82
2024/01/05 11:16:15;;;;;;;3.63;2.15;;;7.40;99.90;;;;;;5021606;28;20533;-79
2024/01/05 11:18:57;;;;;;;2.78;2.17;;;7.40;99.90;;;;;;5030739;28;20055;-80
2024/01/05 11:21:45;;;;;;;2.28;1.60;;;7.50;99.90;;;;;;5036756;28;20429;-78
2024/01/05 11:24:13;;;;;;;3.00;1.88;;;7.60;99.90;;;;;;5034169;28;20052;-78
2024/01/05 11:26:44;;;;;;;2.30;1.60;;;7.60;99.90;;;;;;5010821;28;20077;-78
2024/01/05 11:29:15;;;;;;;2.45;1.73;;;7.70;99.90;;;;;;4993888;28;20049;-78
2024/01/05 11:31:48;;;;;;;2.95;1.88;;;7.70;99.90;;;;;;5034298;28;20457;-77
2024/01/05 11:34:34;;;;;;;3.22;2.13;;;7.70;99.90;;;;;;5035396;28;20492;-77
2024/01/05 11:37:06;;;;;;;3.25;2.03;;;7.70;99.90;;;;;;5027949;28;20038;-77
2024/01/05 11:39:40;;;;;;;3.55;1.80;;;7.70;99.90;;;;;;5013113;28;20480;-77
2024/01/05 11:42:07;;;;;;;5.45;2.17;;;7.70;99.90;;;;;;5029691;28;20045;-78
2024/01/05 11:44:35;;;;;;;4.90;2.40;;;7.60;99.90;;;;;;4999050;28;20076;-77
2024/01/05 11:47:02;;;;;;;3.28;2.13;;;7.70;99.90;;;;;;5001659;28;20041;-77
2024/01/05 11:49:37;;;;;;;2.60;1.73;;;7.70;99.90;;;;;;5003110;28;20115;-77
2024/01/05 11:52:05;;;;;;;2.65;1.77;;;7.70;99.90;;;;;;5011064;28;20084;-77
2024/01/05 11:54:32;;;;;;;3.30;1.90;;;7.80;99.90;;;;;;5015495;28;20159;-77
2024/01/05 11:57:00;;;;;;;2.42;1.60;;;7.70;99.90;;;;;;4993892;28;20058;-78
2024/01/05 11:59:27;;;;;;;3.08;2.00;;;7.70;99.90;;;;;;5009712;28;20061;-77
2024/01/05 12:01:54;;;;;;;3.33;1.83;;;7.70;99.90;;;;;;5027956;28;20098;-76
2024/01/05 12:04:21;;;;;;;2.30;1.67;;;7.80;99.90;;;;;;5015077;28;20045;-76
2024/01/05 12:06:52;;;;;;;2.70;1.80;;;7.90;99.90;;;;;;4996022;28;20038;-76
2024/01/05 12:09:21;;;;;;;5.13;2.47;;;7.90;99.90;;;;;;5033394;28;20904;-76
2024/01/05 12:11:48;;;;;;;3.35;1.83;;;8.00;99.90;;;;;;5020480;28;20431;-77
2024/01/05 12:14:27;;;;;;;3.35;2.13;;;8.00;99.90;;;;;;5006540;28;20048;-76
2024/01/05 12:17:12;;;;;;;2.13;1.80;;;8.00;99.90;;;;;;5025786;28;20095;-77
2024/01/05 12:19:39;;;;;;;2.03;1.52;;;8.10;99.90;;;;;;5003037;28;20049;-77
2024/01/05 12:22:08;;;;;;;1.98;1.30;;;8.20;99.90;;;;;;5012180;28;20061;-77
2024/01/05 12:24:35;;;;;;;1.38;1.20;;;8.20;99.90;;;;;;5001150;28;20656;-77
2024/01/05 12:27:04;;;;;;;2.55;1.50;;;8.20;99.90;;;;;;5019646;28;20048;-77
2024/01/05 12:29:31;;;;;;;1.98;1.30;;;8.20;99.90;;;;;;5022474;28;20057;-76
2024/01/05 12:31:58;;;;;;;2.40;1.02;;;8.20;99.90;;;;;;4998296;28;20062;-76
2024/01/05 12:34:25;;;;;;;2.75;1.35;;;8.20;99.90;;;;;;5000378;28;20076;-76
2024/01/05 12:37:04;;;;;;;2.05;1.20;;;8.30;99.90;;;;;;4996911;28;20617;-77
2024/01/05 12:39:30;;;;;;;2.85;1.80;;;8.30;99.90;;;;;;5031650;28;20108;-76
2024/01/05 12:41:57;;;;;;;3.38;1.95;;;8.20;99.90;;;;;;5013756;28;20095;-77
2024/01/05 12:44:24;;;;;;;3.25;2.08;;;8.20;99.90;;;;;;5025976;28;20136;-77
2024/01/05 12:46:51;;;;;;;3.75;2.95;;;8.10;99.90;;;;;;5042456;28;20048;-77
2024/01/05 12:49:21;;;;;;;5.88;3.35;;;8.10;99.90;;;;;;5043147;28;20613;-77
2024/01/05 12:51:51;;;;;;;4.22;2.30;;;8.00;99.90;;;;;;5020213;28;20053;-78
2024/01/05 12:54:20;;;;;;;4.40;2.30;;;8.00;99.90;;;;;;5022697;28;20063;-77
2024/01/05 12:56:48;;;;;;;3.80;2.00;;;8.00;99.90;;;;;;5009404;28;20106;-79
2024/01/05 12:59:20;;;;;;;3.50;2.17;;;8.00;99.90;;;;;;5032876;28;20050;-79
2024/01/05 13:02:00;;;;;;;2.28;1.65;;;8.00;99.90;;;;;;5023314;28;20053;-78
2024/01/05 13:04:30;;;;;;;3.25;1.88;;;8.10;99.90;;;;;;5027775;28;20076;-78
2024/01/05 13:07:08;;;;;;;2.42;1.60;;;8.10;99.90;;;;;;5023453;28;20046;-77